Time;durP1;ratioP1;P1;durP2;ratioP2;P2;SDS_P1;SDS_P2;PMS_P1;PMS_P2;Temp;Humidity;BMP_temperature;BMP_pressure;BME280_temperature;BME280_humidity;BME280_pressure;Samples;Min_cycle;Max_cycle;Signal;HPM_P1;HPM_P2
2021/09/07 00:01:42;;;;;;;29.35;7.53;;;;;;;3.33;100.00;102140.38;1695337;84;21552;-51
2021/09/07 00:04:09;;;;;;;21.02;6.22;;;;;;;3.33;100.00;102140.38;1695327;84;21016;-54
2021/09/07 00:06:36;;;;;;;15.35;5.50;;;;;;;3.29;100.00;102145.77;1665529;84;20976;-51
2021/09/07 00:09:03;;;;;;;12.25;5.30;;;;;;;3.24;100.00;102143.45;1695300;84;21529;-51
2021/09/07 00:11:32;;;;;;;24.37;5.58;;;;;;;3.21;100.00;102143.33;1695278;84;22282;-51
2021/09/07 00:14:00;;;;;;;13.65;4.95;;;;;;;3.20;100.00;102146.28;1695378;84;20955;-52
2021/09/07 00:16:26;;;;;;;10.60;4.90;;;;;;;3.14;100.00;102148.19;1695464;84;21039;-52
2021/09/07 00:18:53;;;;;;;9.83;4.97;;;;;;;3.14;100.00;102149.46;1695249;84;21123;-52
2021/09/07 00:21:19;;;;;;;15.53;5.03;;;;;;;3.20;100.00;102156.94;1695239;84;21040;-52
2021/09/07 00:23:47;;;;;;;10.13;4.85;;;;;;;3.16;100.00;102155.55;1695313;84;21301;-50
2021/09/07 00:26:13;;;;;;;16.75;5.72;;;;;;;3.16;100.00;102155.55;1695221;83;20964;-50
2021/09/07 00:28:40;;;;;;;11.00;4.70;;;;;;;3.15;100.00;102151.20;1695125;84;20984;-52
2021/09/07 00:31:06;;;;;;;19.73;5.28;;;;;;;3.10;100.00;102152.72;1695311;84;21032;-50
2021/09/07 00:33:33;;;;;;;22.42;6.42;;;;;;;3.01;100.00;102151.94;1695208;84;21170;-53
2021/09/07 00:36:00;;;;;;;14.30;5.30;;;;;;;2.94;100.00;102152.52;1695282;84;21538;-53
2021/09/07 00:38:27;;;;;;;19.32;5.12;;;;;;;2.84;100.00;102154.25;1695312;84;20956;-53
2021/09/07 00:40:54;;;;;;;15.18;6.00;;;;;;;2.77;100.00;102156.06;1695303;84;20956;-54
2021/09/07 00:43:21;;;;;;;24.23;5.72;;;;;;;2.70;100.00;102151.13;1695241;84;21072;-52
2021/09/07 00:45:47;;;;;;;17.98;6.33;;;;;;;2.66;100.00;102153.09;1695437;84;21909;-53
2021/09/07 00:48:14;;;;;;;14.95;5.40;;;;;;;2.59;100.00;102151.53;1665363;84;21604;-53
2021/09/07 00:50:42;;;;;;;14.03;6.00;;;;;;;2.57;100.00;102154.44;1712703;83;21013;-52
2021/09/07 00:53:08;;;;;;;14.23;5.17;;;;;;;2.57;100.00;102153.16;1716318;83;21005;-52
2021/09/07 00:55:35;;;;;;;12.18;5.85;;;;;;;2.56;100.00;102149.28;1721020;83;20991;-52
2021/09/07 00:58:03;;;;;;;18.98;5.65;;;;;;;2.56;100.00;102152.69;1692046;84;21139;-50
2021/09/07 01:00:30;;;;;;;10.35;5.03;;;;;;;2.54;100.00;102153.45;1691919;84;21010;-52
2021/09/07 01:02:57;;;;;;;13.25;6.08;;;;;;;2.47;100.00;102152.31;1692307;84;20899;-51
2021/09/07 01:05:25;;;;;;;14.53;5.37;;;;;;;2.46;100.00;102147.12;1692181;83;21552;-52
2021/09/07 01:07:53;;;;;;;14.78;5.30;;;;;;;2.41;100.00;102152.92;1691856;84;21025;-51
2021/09/07 01:10:21;;;;;;;20.90;6.42;;;;;;;2.37;100.00;102153.61;1692024;84;21111;-54
2021/09/07 01:12:49;;;;;;;13.03;6.22;;;;;;;2.32;100.00;102152.55;1720959;83;21481;-54
2021/09/07 01:15:17;;;;;;;24.07;7.55;;;;;;;2.29;100.00;102155.83;1721157;83;21026;-51
2021/09/07 01:17:46;;;;;;;27.70;7.08;;;;;;;2.25;100.00;102159.06;1691682;84;21054;-53
2021/09/07 01:20:14;;;;;;;33.28;7.30;;;;;;;2.22;100.00;102155.49;1692002;84;21089;-52
2021/09/07 01:22:41;;;;;;;24.37;6.72;;;;;;;2.16;100.00;102162.51;1691832;84;21893;-52
2021/09/07 01:25:08;;;;;;;20.97;6.05;;;;;;;2.14;100.00;102163.70;1691943;84;20987;-50
2021/09/07 01:27:36;;;;;;;19.15;7.35;;;;;;;2.11;100.00;102164.86;1721163;83;20974;-51
2021/09/07 01:30:04;;;;;;;18.87;6.87;;;;;;;2.11;100.00;102163.97;1720617;83;21024;-51
2021/09/07 01:32:32;;;;;;;27.32;7.60;;;;;;;2.12;100.00;102165.33;1692022;84;20982;-54
2021/09/07 01:34:59;;;;;;;20.45;6.30;;;;;;;2.12;100.00;102170.83;1691973;84;21094;-52
2021/09/07 01:37:26;;;;;;;20.50;6.45;;;;;;;2.10;100.00;102166.94;1691758;84;20986;-52
2021/09/07 01:39:53;;;;;;;24.90;6.37;;;;;;;2.12;100.00;102166.98;1692115;84;20916;-52
2021/09/07 01:42:22;;;;;;;18.70;6.53;;;;;;;2.14;100.00;102169.20;1692008;84;21066;-53
2021/09/07 01:44:48;;;;;;;18.82;6.42;;;;;;;2.15;100.00;102165.87;1692279;83;21014;-53
2021/09/07 01:47:15;;;;;;;18.25;6.80;;;;;;;2.16;100.00;102166.34;1691955;83;21093;-53
2021/09/07 01:49:43;;;;;;;26.23;6.58;;;;;;;2.21;100.00;102166.52;1714735;83;20963;-54
2021/09/07 01:52:14;;;;;;;22.00;7.35;;;;;;;2.23;100.00;102164.52;1665215;84;21024;-53
2021/09/07 01:54:44;;;;;;;16.73;7.22;;;;;;;2.23;100.00;102161.96;1695185;84;21286;-51
2021/09/07 01:57:11;;;;;;;17.27;6.47;;;;;;;2.21;100.00;102173.80;1694999;84;21012;-54
2021/09/07 01:59:38;;;;;;;17.92;7.45;;;;;;;2.17;100.00;102171.92;1695429;84;21124;-54
2021/09/07 02:02:06;;;;;;;19.45;7.25;;;;;;;2.14;100.00;102171.76;1695151;84;21593;-53
2021/09/07 02:04:34;;;;;;;21.95;7.22;;;;;;;2.09;100.00;102174.52;1695488;84;21011;-52
2021/09/07 02:07:03;;;;;;;22.10;7.17;;;;;;;2.05;100.00;102179.03;1695357;84;21609;-50
2021/09/07 02:09:31;;;;;;;22.20;7.83;;;;;;;2.01;100.00;102184.01;1695426;84;21011;-53
2021/09/07 02:11:58;;;;;;;18.90;7.75;;;;;;;2.01;100.00;102175.06;1695274;84;21885;-54
2021/09/07 02:14:26;;;;;;;22.67;7.67;;;;;;;2.01;100.00;102174.17;1695102;84;21011;-51
2021/09/07 02:16:53;;;;;;;28.85;8.08;;;;;;;2.01;100.00;102178.02;1695278;84;21506;-51
2021/09/07 02:19:20;;;;;;;35.25;8.95;;;;;;;1.99;100.00;102171.58;1695102;84;20955;-53
2021/09/07 02:21:48;;;;;;;19.25;8.08;;;;;;;1.97;100.00;102177.02;1695208;83;21043;-53
2021/09/07 02:24:17;;;;;;;23.12;7.40;;;;;;;1.93;100.00;102175.53;1695199;84;22440;-53
2021/09/07 02:26:44;;;;;;;21.17;6.97;;;;;;;1.88;100.00;102177.86;1695069;84;21007;-55
2021/09/07 02:29:10;;;;;;;25.50;7.55;;;;;;;1.86;100.00;102172.70;1665427;84;21043;-52
2021/09/07 02:31:38;;;;;;;28.05;8.28;;;;;;;1.88;100.00;102173.17;1695160;84;20972;-54
2021/09/07 02:34:05;;;;;;;30.27;10.08;;;;;;;1.84;100.00;102176.88;1695069;84;21555;-53
2021/09/07 02:36:34;;;;;;;24.12;9.65;;;;;;;1.81;100.00;102181.84;1665450;84;21119;-52
2021/09/07 02:39:01;;;;;;;21.80;8.70;;;;;;;1.77;100.00;102179.96;1694943;84;21015;-51
2021/09/07 02:41:28;;;;;;;22.77;9.15;;;;;;;1.74;100.00;102183.63;1695057;83;21550;-54
2021/09/07 02:43:55;;;;;;;21.57;8.70;;;;;;;1.71;100.00;102188.21;1695494;84;21000;-53
2021/09/07 02:46:25;;;;;;;22.90;6.22;;;;;;;1.69;100.00;102189.82;1665228;84;21031;-53
2021/09/07 02:48:52;;;;;;;24.75;7.30;;;;;;;1.67;100.00;102188.88;1695410;84;21137;-50
2021/09/07 02:51:19;;;;;;;18.92;6.28;;;;;;;1.69;100.00;102191.48;1712589;83;21536;-52
2021/09/07 02:53:48;;;;;;;12.37;5.67;;;;;;;1.69;100.00;102197.48;1720899;83;20923;-50
2021/09/07 02:56:16;;;;;;;11.50;5.97;;;;;;;1.71;100.00;102197.14;1691893;84;20935;-52
2021/09/07 02:58:44;;;;;;;23.62;7.15;;;;;;;1.72;100.00;102197.62;1692053;83;21706;-53
2021/09/07 03:01:12;;;;;;;16.87;7.78;;;;;;;1.71;100.00;102199.70;1691913;84;21065;-54
2021/09/07 03:03:39;;;;;;;39.73;16.50;;;;;;;1.72;100.00;102204.39;1691934;84;21046;-52
2021/09/07 03:06:06;;;;;;;27.17;16.23;;;;;;;1.75;100.00;102208.77;1691947;84;20970;-54
2021/09/07 03:08:33;;;;;;;54.63;25.82;;;;;;;1.75;100.00;102203.25;1720903;83;20958;-54
2021/09/07 03:11:00;;;;;;;42.15;16.60;;;;;;;1.76;100.00;102202.44;1691975;84;20979;-53
2021/09/07 03:13:27;;;;;;;38.67;19.37;;;;;;;1.76;100.00;102207.97;1692168;84;21115;-51
2021/09/07 03:15:53;;;;;;;32.73;16.70;;;;;;;1.74;100.00;102207.88;1691919;84;21513;-52
2021/09/07 03:18:20;;;;;;;34.20;14.70;;;;;;;1.74;100.00;102212.13;1692092;84;21457;-52
2021/09/07 03:20:48;;;;;;;19.67;8.03;;;;;;;1.73;100.00;102213.80;1690607;84;20991;-54
2021/09/07 03:23:17;;;;;;;28.73;8.93;;;;;;;1.77;100.00;102221.20;1720872;83;20978;-51
2021/09/07 03:25:44;;;;;;;31.95;12.07;;;;;;;1.80;100.00;102214.96;1691946;84;21098;-55
2021/09/07 03:28:11;;;;;;;30.48;14.20;;;;;;;1.84;100.00;102221.56;1691970;83;21001;-53
2021/09/07 03:30:39;;;;;;;19.85;10.18;;;;;;;1.89;100.00;102216.65;1690323;84;20908;-54
2021/09/07 03:33:05;;;;;;;31.15;12.58;;;;;;;1.93;100.00;102215.12;1720888;83;20936;-54
2021/09/07 03:35:32;;;;;;;60.43;27.00;;;;;;;1.95;100.00;102216.95;1666102;84;20994;-54
2021/09/07 03:37:58;;;;;;;40.35;22.22;;;;;;;1.97;100.00;102217.89;1692020;84;21056;-54
2021/09/07 03:40:26;;;;;;;49.35;18.50;;;;;;;1.99;100.00;102216.66;1691911;84;20920;-52
2021/09/07 03:42:55;;;;;;;40.33;16.95;;;;;;;1.98;100.00;102220.92;1720987;83;21527;-52
2021/09/07 03:45:23;;;;;;;58.87;25.10;;;;;;;2.03;100.00;102227.91;1720918;83;21214;-53
2021/09/07 03:47:51;;;;;;;46.80;23.85;;;;;;;2.08;100.00;102223.88;1692062;84;20999;-53
2021/09/07 03:50:17;;;;;;;41.40;14.98;;;;;;;2.15;100.00;102218.26;1686651;84;21140;-54
2021/09/07 03:52:46;;;;;;;36.58;14.75;;;;;;;2.22;100.00;102219.38;1695180;84;21683;-53
2021/09/07 03:55:13;;;;;;;32.00;12.63;;;;;;;2.28;100.00;102220.53;1695381;84;20953;-54
2021/09/07 03:57:40;;;;;;;34.67;12.55;;;;;;;2.35;100.00;102218.23;1695190;84;21054;-52
2021/09/07 04:00:09;;;;;;;36.42;12.60;;;;;;;2.42;100.00;102222.41;1695242;84;21059;-51
2021/09/07 04:02:41;;;;;;;26.23;12.82;;;;;;;2.55;100.00;102221.68;1695260;83;21040;-52
2021/09/07 04:05:09;;;;;;;22.87;10.28;;;;;;;2.70;100.00;102232.55;1695363;84;21019;-53
2021/09/07 04:07:38;;;;;;;21.37;10.95;;;;;;;2.87;100.00;102228.13;1695199;84;20960;-53
2021/09/07 04:10:06;;;;;;;18.73;10.50;;;;;;;3.05;100.00;102230.14;1695295;84;21032;-54
2021/09/07 04:12:33;;;;;;;24.98;9.45;;;;;;;3.23;100.00;102231.28;1695268;84;21024;-52
2021/09/07 04:15:03;;;;;;;28.73;9.35;;;;;;;3.43;100.00;102229.13;1695167;84;21031;-55
2021/09/07 04:17:30;;;;;;;17.92;9.03;;;;;;;3.72;100.00;102232.33;1695201;84;20999;-52
2021/09/07 04:19:57;;;;;;;31.00;9.85;;;;;;;4.01;100.00;102232.16;1695188;84;21108;-55
2021/09/07 04:22:24;;;;;;;25.25;9.13;;;;;;;4.31;100.00;102229.39;1695277;84;20932;-53
2021/09/07 04:24:50;;;;;;;22.00;9.28;;;;;;;4.66;100.00;102235.27;1665116;84;21008;-53
2021/09/07 04:27:18;;;;;;;17.37;10.20;;;;;;;5.04;100.00;102229.28;1665832;84;21562;-54
2021/09/07 04:29:45;;;;;;;21.07;9.35;;;;;;;5.45;100.00;102230.14;1695135;83;21023;-52
2021/09/07 04:32:11;;;;;;;24.10;9.55;;;;;;;5.88;100.00;102234.03;1695315;84;20953;-52
2021/09/07 04:34:38;;;;;;;18.52;9.20;;;;;;;6.33;100.00;102240.90;1695493;84;21007;-52
2021/09/07 04:37:04;;;;;;;21.23;9.45;;;;;;;6.76;100.00;102233.45;1695372;84;20963;-54
2021/09/07 04:39:30;;;;;;;23.42;9.10;;;;;;;7.12;100.00;102241.62;1695315;84;21124;-54
2021/09/07 04:41:57;;;;;;;21.42;7.47;;;;;;;7.39;100.00;102240.98;1695017;84;20940;-52
2021/09/07 04:44:25;;;;;;;32.33;8.58;;;;;;;7.59;100.00;102247.88;1665112;84;21059;-54
2021/09/07 04:46:54;;;;;;;46.77;8.58;;;;;;;7.77;100.00;102244.83;1695370;84;21330;-54
2021/09/07 04:49:22;;;;;;;31.42;7.80;;;;;;;7.98;100.00;102244.44;1695538;83;21612;-52
2021/09/07 04:51:49;;;;;;;29.23;8.33;;;;;;;8.13;100.00;102246.86;1711240;83;21744;-53
2021/09/07 04:54:15;;;;;;;21.95;7.22;;;;;;;8.26;100.00;102242.81;1720867;83;20915;-53
2021/09/07 04:56:43;;;;;;;16.55;6.65;;;;;;;8.38;100.00;102244.77;1692081;84;20955;-54
2021/09/07 04:59:10;;;;;;;20.30;7.10;;;;;;;8.43;100.00;102236.69;1692108;83;21002;-53
2021/09/07 05:01:37;;;;;;;11.50;6.55;;;;;;;8.41;99.72;102245.70;1692070;84;20963;-51
2021/09/07 05:04:04;;;;;;;19.75;8.03;;;;;;;8.37;99.74;102234.00;1692097;84;21837;-55
2021/09/07 05:06:31;;;;;;;22.62;11.53;;;;;;;8.33;99.73;102240.80;1666170;84;21002;-52
2021/09/07 05:08:57;;;;;;;22.45;12.30;;;;;;;8.26;99.46;102238.55;1692107;84;20959;-52
2021/09/07 05:11:24;;;;;;;18.35;10.05;;;;;;;8.19;99.22;102237.55;1720734;82;21034;-51
2021/09/07 05:13:52;;;;;;;20.25;9.35;;;;;;;8.13;99.17;102233.56;1692216;84;21006;-52
2021/09/07 05:16:18;;;;;;;22.90;9.90;;;;;;;8.08;99.22;102239.45;1720830;82;21125;-51
2021/09/07 05:18:47;;;;;;;20.70;9.20;;;;;;;8.04;99.49;102240.69;1691972;84;20995;-53
2021/09/07 05:21:15;;;;;;;30.35;9.45;;;;;;;8.02;99.61;102237.20;1691996;84;20986;-53
2021/09/07 05:23:41;;;;;;;18.37;10.30;;;;;;;8.03;99.63;102245.80;1692044;84;21002;-53
2021/09/07 05:26:08;;;;;;;25.35;9.53;;;;;;;8.03;99.78;102242.81;1666214;84;21002;-52
2021/09/07 05:28:34;;;;;;;26.30;9.65;;;;;;;8.09;99.91;102243.77;1720942;83;21092;-54
2021/09/07 05:31:01;;;;;;;28.17;10.30;;;;;;;8.14;99.64;102248.59;1691993;83;21069;-54
2021/09/07 05:33:27;;;;;;;32.85;10.13;;;;;;;8.18;99.18;102242.66;1691925;84;21011;-53
2021/09/07 05:35:54;;;;;;;33.65;11.15;;;;;;;8.23;98.43;102248.81;1720847;83;20971;-51
2021/09/07 05:38:21;;;;;;;24.10;9.25;;;;;;;8.30;97.41;102247.19;1721006;82;21305;-53
2021/09/07 05:40:48;;;;;;;41.65;10.25;;;;;;;8.36;96.10;102246.45;1692031;84;22343;-52
2021/09/07 05:43:14;;;;;;;34.67;9.40;;;;;;;8.42;95.39;102254.30;1691914;83;20963;-55
2021/09/07 05:45:41;;;;;;;27.98;8.95;;;;;;;8.50;94.22;102248.04;1694142;83;20991;-53
2021/09/07 05:48:07;;;;;;;31.12;9.60;;;;;;;8.57;93.09;102249.88;1721046;83;20987;-52
2021/09/07 05:50:34;;;;;;;32.53;7.40;;;;;;;8.64;92.50;102250.47;1689798;84;20971;-54
2021/09/07 05:53:01;;;;;;;29.32;7.40;;;;;;;8.75;91.99;102251.95;1714484;82;21084;-54
2021/09/07 05:55:28;;;;;;;30.62;6.90;;;;;;;8.87;90.38;102244.84;1714068;82;21009;-51
2021/09/07 05:57:55;;;;;;;19.12;6.00;;;;;;;9.01;88.77;102250.24;1735190;82;20998;-53
2021/09/07 06:00:22;;;;;;;26.23;7.35;;;;;;;9.12;87.89;102251.72;1735047;81;21593;-52
2021/09/07 06:02:51;;;;;;;24.87;5.95;;;;;;;9.24;86.52;102254.92;1735205;82;21510;-52
2021/09/07 06:05:16;;;;;;;22.65;5.60;;;;;;;9.31;85.51;102256.30;1735140;81;21306;-54
2021/09/07 06:07:42;;;;;;;20.70;6.00;;;;;;;9.41;84.17;102257.32;1735151;82;21042;-53
2021/09/07 06:10:10;;;;;;;24.98;6.30;;;;;;;9.54;83.98;102260.11;1735046;81;20985;-52
2021/09/07 06:12:37;;;;;;;16.65;5.37;;;;;;;9.64;83.51;102269.72;1738716;82;20992;-52
2021/09/07 06:15:05;;;;;;;18.73;5.37;;;;;;;9.74;81.55;102270.32;1735044;81;21015;-52
2021/09/07 06:17:31;;;;;;;18.48;5.20;;;;;;;9.84;80.05;102272.58;1735054;82;21246;-52
2021/09/07 06:20:00;;;;;;;18.15;5.65;;;;;;;9.95;79.74;102270.14;1734972;82;20976;-54
2021/09/07 06:22:26;;;;;;;22.58;5.12;;;;;;;10.08;78.47;102275.48;1714232;82;20965;-52
2021/09/07 06:24:52;;;;;;;16.70;5.03;;;;;;;10.19;78.26;102275.18;1735308;82;20976;-51
2021/09/07 06:27:19;;;;;;;24.77;5.10;;;;;;;10.29;77.66;102274.46;1735145;82;21754;-51
2021/09/07 06:29:46;;;;;;;18.57;4.78;;;;;;;10.43;77.32;102279.83;1713943;82;21759;-52
2021/09/07 06:32:17;;;;;;;9.90;4.28;;;;;;;10.58;76.33;102279.12;1735149;82;21577;-52
2021/09/07 06:34:41;;;;;;;11.55;3.22;;;;;;;10.70;75.28;102278.80;1734311;82;20964;-53
2021/09/07 06:37:09;;;;;;;6.25;3.77;;;;;;;10.82;73.47;102281.52;1735144;81;21027;-51
2021/09/07 06:39:37;;;;;;;9.65;3.47;;;;;;;10.93;71.59;102286.36;1735190;82;21016;-52
2021/09/07 06:42:05;;;;;;;16.82;3.85;;;;;;;11.05;70.00;102280.87;1735419;81;21122;-51
2021/09/07 06:44:32;;;;;;;7.47;3.37;;;;;;;11.17;69.48;102281.41;1735068;82;21466;-54
2021/09/07 06:46:58;;;;;;;7.22;3.72;;;;;;;11.29;67.84;102285.38;1714401;82;20956;-53
2021/09/07 06:49:24;;;;;;;10.82;3.45;;;;;;;11.41;66.37;102283.30;1726556;82;20944;-54
2021/09/07 06:51:51;;;;;;;7.75;3.05;;;;;;;11.52;65.28;102281.23;1741885;81;20979;-54
2021/09/07 06:54:17;;;;;;;7.42;3.20;;;;;;;11.63;64.88;102282.16;1749062;80;21136;-53
2021/09/07 06:56:46;;;;;;;9.63;3.10;;;;;;;11.74;63.99;102282.22;1744174;82;20998;-52
2021/09/07 06:59:14;;;;;;;7.85;3.12;;;;;;;11.86;62.48;102286.61;1721106;82;21031;-52
2021/09/07 07:01:40;;;;;;;6.70;2.33;;;;;;;11.97;62.15;102285.38;1719184;83;20965;-52
2021/09/07 07:04:08;;;;;;;5.40;2.87;;;;;;;12.09;62.13;102282.84;1720936;82;21050;-54
2021/09/07 07:06:34;;;;;;;10.05;3.10;;;;;;;12.23;61.08;102289.39;1743743;82;21192;-52
2021/09/07 07:09:01;;;;;;;5.47;2.70;;;;;;;12.34;60.24;102287.72;1741962;82;20987;-54
2021/09/07 07:11:29;;;;;;;6.72;2.87;;;;;;;12.48;60.48;102291.66;1737260;82;20916;-51
2021/09/07 07:13:57;;;;;;;8.63;3.33;;;;;;;12.64;60.44;102288.66;1695250;82;20987;-53
2021/09/07 07:16:23;;;;;;;12.85;4.62;;;;;;;12.78;60.07;102283.94;1738882;82;20964;-54
2021/09/07 07:18:49;;;;;;;13.45;3.30;;;;;;;12.91;59.36;102286.97;1726179;82;21526;-53
2021/09/07 07:21:16;;;;;;;5.00;2.52;;;;;;;13.06;59.06;102285.27;1719283;82;21546;-53
2021/09/07 07:23:43;;;;;;;14.80;2.58;;;;;;;13.22;58.42;102285.67;1721265;82;20924;-52
2021/09/07 07:26:10;;;;;;;6.65;2.47;;;;;;;13.36;57.24;102292.61;1732930;82;20937;-53
2021/09/07 07:28:37;;;;;;;13.05;3.30;;;;;;;13.52;56.23;102283.53;1749243;82;21074;-52
2021/09/07 07:31:03;;;;;;;9.13;2.80;;;;;;;13.70;55.79;102296.48;1733087;82;21123;-52
2021/09/07 07:33:30;;;;;;;11.50;3.47;;;;;;;13.89;54.65;102294.72;1747051;82;20975;-53
2021/09/07 07:35:56;;;;;;;5.62;2.67;;;;;;;14.08;53.83;102298.13;1741746;82;21482;-54
2021/09/07 07:38:23;;;;;;;8.68;2.52;;;;;;;14.27;54.11;102296.72;1746899;82;20912;-53
2021/09/07 07:40:50;;;;;;;11.25;3.67;;;;;;;14.48;53.04;102299.67;1737412;81;20940;-54
2021/09/07 07:43:17;;;;;;;9.45;2.70;;;;;;;14.65;53.15;102298.27;1729339;82;21122;-54
2021/09/07 07:45:43;;;;;;;5.83;3.17;;;;;;;14.79;51.28;102296.05;1731343;82;21012;-54
2021/09/07 07:48:09;;;;;;;4.37;2.87;;;;;;;14.92;49.80;102297.67;1698705;83;20924;-54
2021/09/07 07:50:36;;;;;;;3.92;2.85;;;;;;;14.94;47.35;102298.53;1734442;82;20979;-54
2021/09/07 07:53:04;;;;;;;16.23;3.35;;;;;;;14.99;49.09;102302.42;1730248;81;21022;-50
2021/09/07 07:55:31;;;;;;;6.15;2.65;;;;;;;15.03;48.77;102297.60;1736057;82;21140;-52
2021/09/07 07:57:58;;;;;;;9.35;3.02;;;;;;;15.04;48.38;102295.88;1721254;82;20971;-54
2021/09/07 08:00:25;;;;;;;8.33;2.90;;;;;;;15.04;47.53;102288.90;1727147;82;20939;-54
2021/09/07 08:02:52;;;;;;;12.30;2.50;;;;;;;15.07;47.95;102281.05;1736187;82;20976;-53
2021/09/07 08:05:18;;;;;;;21.90;3.40;;;;;;;15.18;47.87;102280.95;1719480;83;20987;-53
2021/09/07 08:07:46;;;;;;;10.23;3.72;;;;;;;15.33;47.96;102281.70;1739525;82;21144;-54
2021/09/07 08:10:14;;;;;;;9.65;2.70;;;;;;;15.49;48.20;102277.20;1749066;82;20937;-53
2021/09/07 08:12:41;;;;;;;5.15;2.37;;;;;;;15.68;48.30;102286.16;1748878;82;20932;-52
2021/09/07 08:15:09;;;;;;;5.87;2.17;;;;;;;15.89;45.68;102288.98;1748598;82;21541;-52
2021/09/07 08:17:36;;;;;;;2.95;1.65;;;;;;;16.04;44.36;102289.23;1746854;82;21022;-54
2021/09/07 08:20:05;;;;;;;13.60;1.90;;;;;;;16.06;42.38;102290.96;1748935;82;21102;-52
2021/09/07 08:22:31;;;;;;;1.62;1.52;;;;;;;16.13;43.29;102290.87;1748790;82;20931;-52
2021/09/07 08:24:57;;;;;;;3.40;1.95;;;;;;;16.35;43.65;102291.02;1749603;81;20936;-54
2021/09/07 08:27:23;;;;;;;7.75;1.60;;;;;;;16.36;40.82;102287.95;1749138;80;20889;-54
2021/09/07 08:29:50;;;;;;;4.17;1.57;;;;;;;16.35;41.20;102288.41;1749492;82;20975;-54
2021/09/07 08:32:17;;;;;;;2.40;1.50;;;;;;;16.57;41.48;102296.38;1749383;82;21020;-52
2021/09/07 08:34:45;;;;;;;1.98;1.60;;;;;;;16.85;41.08;102287.69;1749123;82;20940;-53
2021/09/07 08:37:11;;;;;;;6.22;1.65;;;;;;;17.16;39.79;102283.28;1749374;82;21015;-53
2021/09/07 08:39:38;;;;;;;2.90;1.55;;;;;;;17.43;39.34;102287.61;1721610;82;20897;-51
2021/09/07 08:42:08;;;;;;;2.50;1.65;;;;;;;17.71;38.50;102283.63;1749131;80;20983;-52
2021/09/07 08:44:34;;;;;;;4.15;1.92;;;;;;;17.90;37.80;102278.88;1721643;82;21712;-52
2021/09/07 08:47:03;;;;;;;2.40;1.90;;;;;;;18.06;37.88;102274.20;1713970;82;20967;-51
2021/09/07 08:49:29;;;;;;;4.35;1.80;;;;;;;18.00;37.86;102274.31;1721372;82;20952;-51
2021/09/07 08:51:56;;;;;;;7.62;2.20;;;;;;;17.98;37.22;102269.55;1745663;81;20881;-52
2021/09/07 08:54:22;;;;;;;10.05;2.90;;;;;;;18.06;36.66;102267.66;1735061;82;21041;-53
2021/09/07 08:56:49;;;;;;;3.85;2.00;;;;;;;18.24;38.30;102265.08;1735230;81;21203;-53
2021/09/07 08:59:15;;;;;;;1.90;1.80;;;;;;;18.59;36.01;102259.49;1735144;82;21004;-52
2021/09/07 09:01:42;;;;;;;3.52;1.70;;;;;;;18.80;34.88;102258.10;1735280;82;20929;-52
2021/09/07 09:04:27;;;;;;;4.37;2.00;;;;;;;19.06;35.59;102257.92;1735058;82;20933;-51
2021/09/07 09:06:56;;;;;;;2.20;1.98;;;;;;;19.48;35.54;102256.81;1735172;82;20984;-51
2021/09/07 09:09:38;;;;;;;1.65;1.55;;;;;;;19.93;33.73;102259.98;1735216;82;20874;-52
2021/09/07 09:12:07;;;;;;;1.67;1.57;;;;;;;20.16;33.18;102261.91;1735127;82;21278;-52
2021/09/07 09:14:42;;;;;;;3.40;1.57;;;;;;;20.39;32.06;102261.22;1735164;82;20983;-54
2021/09/07 09:17:23;;;;;;;4.97;1.82;;;;;;;20.36;31.81;102261.76;1735221;82;20933;-52
2021/09/07 09:20:02;;;;;;;2.40;1.92;;;;;;;20.23;33.32;102263.91;1714424;82;21019;-54
2021/09/07 09:22:57;;;;;;;3.42;1.67;;;;;;;19.98;35.38;102261.17;1735069;82;21149;-51
2021/09/07 09:25:40;;;;;;;2.75;2.00;;;;;;;19.71;34.64;102258.41;1735379;81;20980;-52
2021/09/07 09:28:19;;;;;;;21.55;2.77;;;;;;;19.26;35.58;102264.86;1714097;82;21553;-53
2021/09/07 09:30:51;;;;;;;3.75;1.77;;;;;;;18.50;36.99;102267.55;1735103;82;20913;-52
2021/09/07 09:33:22;;;;;;;6.60;2.05;;;;;;;17.66;36.98;102274.08;1735178;82;21016;-58
2021/09/07 09:35:57;;;;;;;5.40;2.05;;;;;;;17.28;40.46;102272.17;1735116;81;20988;-54
2021/09/07 09:38:27;;;;;;;3.65;1.90;;;;;;;17.15;39.97;102264.55;1735176;82;20941;-53
2021/09/07 09:40:59;;;;;;;20.77;2.92;;;;;;;17.05;41.25;102264.27;1734601;82;21016;-56
2021/09/07 09:43:38;;;;;;;24.05;3.58;;;;;;;17.29;43.32;102271.28;1735153;81;20976;-53
2021/09/07 09:46:26;;;;;;;26.62;4.10;;;;;;;17.63;41.21;102264.13;1735478;82;21027;-52
2021/09/07 09:49:13;;;;;;;32.70;4.85;;;;;;;17.96;41.76;102268.25;1735356;82;20944;-52
2021/09/07 09:51:40;;;;;;;14.28;2.47;;;;;;;18.45;40.29;102270.73;1735625;82;20988;-53
2021/09/07 09:54:08;;;;;;;9.80;2.45;;;;;;;18.72;37.84;102259.18;1749132;82;21486;-52
2021/09/07 09:56:35;;;;;;;5.30;2.20;;;;;;;19.08;38.68;102260.06;1721120;82;21078;-52
2021/09/07 09:59:02;;;;;;;19.17;2.83;;;;;;;19.50;37.03;102253.70;1749177;82;21569;-51
2021/09/07 10:01:29;;;;;;;44.60;4.05;;;;;;;19.65;36.52;102252.88;1749184;80;21992;-52
2021/09/07 10:04:00;;;;;;;25.48;3.15;;;;;;;19.78;35.83;102248.13;1749031;82;21023;-52
2021/09/07 10:06:24;;;;;;;14.90;2.83;;;;;;;19.98;38.78;102258.08;1748924;82;20944;-54
2021/09/07 10:08:51;;;;;;;7.97;2.35;;;;;;;20.08;34.48;102262.61;1748950;82;20909;-51
2021/09/07 10:11:23;;;;;;;3.10;2.25;;;;;;;20.14;35.39;102255.00;1749259;82;20976;-52
2021/09/07 10:13:54;;;;;;;11.57;3.40;;;;;;;20.35;33.38;102254.34;1749122;80;21145;-52
2021/09/07 10:16:37;;;;;;;5.10;2.33;;;;;;;20.37;34.90;102256.91;1749250;82;20881;-53
2021/09/07 10:19:12;;;;;;;2.90;2.42;;;;;;;20.32;35.00;102258.82;1748978;81;20936;-51
2021/09/07 10:24:17;;;;;;;7.25;2.58;;;;;;;20.19;34.10;102256.55;1749375;80;20917;-52
2021/09/07 10:26:48;;;;;;;6.28;2.77;;;;;;;20.30;34.18;102255.38;1749063;82;21177;-52
2021/09/07 10:29:33;;;;;;;24.15;4.03;;;;;;;20.20;35.27;102255.64;1749141;82;20983;-53
2021/09/07 10:32:00;;;;;;;24.27;3.90;;;;;;;19.73;35.39;102253.97;1749166;80;21619;-53
2021/09/07 10:34:28;;;;;;;12.75;2.77;;;;;;;19.31;38.58;102267.78;1749368;81;20987;-52
2021/09/07 10:37:10;;;;;;;8.95;2.95;;;;;;;18.91;38.40;102262.20;1721248;82;21541;-52
2021/09/07 10:39:41;;;;;;;19.20;5.00;;;;;;;18.51;36.96;102259.66;1749108;82;20976;-54
2021/09/07 10:42:14;;;;;;;10.25;3.27;;;;;;;18.35;38.75;102256.54;1748908;82;21548;-54
2021/09/07 10:44:42;;;;;;;9.15;2.98;;;;;;;18.16;37.66;102259.15;1747573;82;20912;-52
2021/09/07 10:47:14;;;;;;;10.48;3.25;;;;;;;18.30;37.63;102256.22;1721348;82;20940;-53
2021/09/07 10:49:47;;;;;;;10.60;3.27;;;;;;;18.77;39.79;102253.37;1749452;82;20963;-54
2021/09/07 10:52:22;;;;;;;10.82;3.15;;;;;;;19.41;36.76;102246.08;1721351;81;22244;-53
2021/09/07 10:55:09;;;;;;;8.28;2.75;;;;;;;19.82;38.11;102251.06;1749198;82;21404;-52
2021/09/07 10:57:43;;;;;;;9.48;2.77;;;;;;;20.17;37.49;102250.48;1749181;81;20983;-54
2021/09/07 11:00:28;;;;;;;5.28;2.62;;;;;;;20.41;33.92;102245.84;1749028;82;21007;-54
2021/09/07 11:03:01;;;;;;;8.30;2.80;;;;;;;20.67;33.89;102230.52;1721401;82;20948;-52
2021/09/07 11:08:38;;;;;;;4.83;2.27;;;;;;;20.45;35.30;102246.15;1870081;76;22691;-53
2021/09/07 11:11:23;;;;;;;5.35;2.08;;;;;;;20.16;34.00;102240.03;1826652;77;21035;-54
2021/09/07 11:13:54;;;;;;;4.95;2.30;;;;;;;19.77;35.59;102245.94;1796022;78;21120;-52
2021/09/07 11:16:21;;;;;;;11.18;2.65;;;;;;;19.24;35.84;102239.52;1824264;77;20939;-53
2021/09/07 11:18:49;;;;;;;9.98;2.58;;;;;;;18.73;38.25;102244.73;1820094;78;20923;-52
2021/09/07 11:21:15;;;;;;;4.45;2.47;;;;;;;18.43;36.57;102243.70;1818571;78;21494;-52
2021/09/07 11:23:42;;;;;;;7.95;2.65;;;;;;;18.26;36.59;102241.00;1814939;77;20983;-53
2021/09/07 11:26:14;;;;;;;3.30;2.20;;;;;;;18.29;36.90;102240.92;1787579;79;21121;-53
2021/09/07 11:28:47;;;;;;;4.97;2.33;;;;;;;18.54;36.70;102235.11;1785360;79;20967;-53
2021/09/07 11:31:14;;;;;;;11.70;2.80;;;;;;;19.01;37.58;102228.77;1796034;79;20966;-52